Aviation Digital Data Service (ADDS)

Output produced by METARs form (1305 UTC 21 February 2018)
found at http://www.aviationweather.gov/adds/metars/
 
VDSR 211230Z 10001KT 9000 FEW017 28/25 Q1006